createdAt,value
2023-09-23T00:00:01.434Z,100
2023-09-23T00:07:01.390Z,100
2023-09-23T00:14:02.075Z,100
2023-09-23T00:21:01.619Z,100
2023-09-23T00:28:01.582Z,100
2023-09-23T00:35:01.905Z,100
2023-09-23T00:42:01.821Z,100
2023-09-23T00:49:01.379Z,100
2023-09-23T00:56:01.709Z,100
2023-09-23T01:00:02.131Z,100
2023-09-23T01:07:01.892Z,100
2023-09-23T01:14:02.112Z,100
2023-09-23T01:21:01.909Z,100
2023-09-23T01:28:02.017Z,100
2023-09-23T01:35:02.068Z,100
2023-09-23T01:42:01.926Z,100
2023-09-23T01:49:01.939Z,100
2023-09-23T01:56:01.971Z,100
2023-09-23T02:00:01.478Z,100
2023-09-23T02:07:01.516Z,100
2023-09-23T02:14:01.516Z,100
2023-09-23T02:21:01.659Z,100
2023-09-23T02:28:01.982Z,100
2023-09-23T02:35:01.951Z,100
2023-09-23T02:42:02.085Z,100
2023-09-23T02:49:02.182Z,100
2023-09-23T02:56:02.436Z,100
2023-09-23T03:00:01.869Z,100
2023-09-23T03:07:01.835Z,100
2023-09-23T03:14:01.411Z,100
2023-09-23T03:21:01.982Z,100
2023-09-23T03:28:02.357Z,100
2023-09-23T03:35:01.946Z,100
2023-09-23T03:42:01.630Z,100
2023-09-23T03:49:01.561Z,100
2023-09-23T03:56:01.889Z,100
2023-09-23T04:00:02.347Z,100
2023-09-23T04:07:01.906Z,100
2023-09-23T04:14:02.393Z,100
2023-09-23T04:21:02.171Z,100
2023-09-23T04:28:01.462Z,100
2023-09-23T04:35:01.875Z,100
2023-09-23T04:42:01.508Z,100
2023-09-23T04:49:02.376Z,100
2023-09-23T04:56:01.812Z,100
2023-09-23T05:00:02.180Z,100
2023-09-23T05:07:01.515Z,100
2023-09-23T05:14:02.367Z,100
2023-09-23T05:21:01.896Z,100
2023-09-23T05:28:01.735Z,100
2023-09-23T05:35:01.522Z,100
2023-09-23T05:42:01.581Z,100
2023-09-23T05:49:02.270Z,100
2023-09-23T05:56:01.787Z,100
2023-09-23T06:00:02.180Z,100
2023-09-23T06:07:01.607Z,100
2023-09-23T06:14:01.967Z,100
2023-09-23T06:21:02.283Z,100
2023-09-23T06:28:02.006Z,100
2023-09-23T06:35:01.471Z,100
2023-09-23T06:42:01.884Z,100
2023-09-23T06:49:02.022Z,100
2023-09-23T06:56:01.918Z,100
2023-09-23T07:00:02.295Z,100
2023-09-23T07:07:01.779Z,100
2023-09-23T07:14:01.437Z,100
2023-09-23T07:21:01.380Z,100
2023-09-23T07:28:02.023Z,100
2023-09-23T07:35:02.234Z,100
2023-09-23T07:42:02.314Z,100
2023-09-23T07:49:03.790Z,100
2023-09-23T07:56:01.645Z,100
2023-09-23T08:00:02.047Z,100
2023-09-23T08:07:01.764Z,99.625
2023-09-23T08:14:01.765Z,99.625
2023-09-23T08:21:01.442Z,100
2023-09-23T08:28:01.798Z,98.336
2023-09-23T08:35:01.936Z,98.336
2023-09-23T08:42:01.448Z,96.509
2023-09-23T08:49:01.398Z,96.641
2023-09-23T08:56:01.472Z,94.946
2023-09-23T09:00:01.888Z,94.946
2023-09-23T09:07:02.033Z,94.367
2023-09-23T09:14:02.288Z,94.367
2023-09-23T09:21:01.520Z,93.979
2023-09-23T09:28:02.197Z,91.756
2023-09-23T09:35:02.047Z,91.705
2023-09-23T09:42:01.862Z,91.705
2023-09-23T09:49:01.787Z,88.162
2023-09-23T09:56:01.964Z,87.905
2023-09-23T10:00:01.404Z,87.905
2023-09-23T10:07:01.642Z,87.003
2023-09-23T10:14:02.005Z,83.259
2023-09-23T10:21:02.204Z,83.259
2023-09-23T10:28:01.737Z,86.167
2023-09-23T10:35:01.841Z,82.947
2023-09-23T10:42:02.287Z,84.294
2023-09-23T10:49:01.876Z,84.294
2023-09-23T10:56:01.584Z,85.239
2023-09-23T11:00:01.961Z,85.239
2023-09-23T11:07:02.014Z,81.326
2023-09-23T11:14:01.463Z,80.113
2023-09-23T11:21:02.245Z,79.683
2023-09-23T11:28:01.897Z,79.683
2023-09-23T11:35:02.252Z,81.992
2023-09-23T11:42:02.274Z,80.681
2023-09-23T11:49:02.196Z,80.681
2023-09-23T11:56:01.548Z,81.327
2023-09-23T12:00:01.914Z,82.086
2023-09-23T12:07:01.640Z,82.086
2023-09-23T12:14:02.236Z,79.079
2023-09-23T12:21:01.703Z,78.75
2023-09-23T12:28:01.802Z,78.366
2023-09-23T12:35:02.065Z,78.366
2023-09-23T12:42:02.274Z,79.2
2023-09-23T12:49:01.533Z,79.708
2023-09-23T12:56:02.263Z,79.708
2023-09-23T13:00:01.778Z,80.34
2023-09-23T13:07:01.871Z,78.244
2023-09-23T13:14:02.227Z,78.244
2023-09-23T13:21:01.815Z,76.011
2023-09-23T13:28:02.046Z,76.575
2023-09-23T13:35:01.851Z,76.575
2023-09-23T13:42:02.253Z,76.322
2023-09-23T13:49:02.184Z,76.108
2023-09-23T13:56:01.786Z,74.153
2023-09-23T14:00:02.354Z,74.153
2023-09-23T14:07:02.255Z,75.33
2023-09-23T14:14:02.307Z,75.33
2023-09-23T14:21:02.256Z,74.27
2023-09-23T14:28:02.271Z,75.752
2023-09-23T14:35:01.756Z,72.991
2023-09-23T14:42:01.397Z,72.991
2023-09-23T14:49:01.650Z,72.494
2023-09-23T14:56:01.915Z,71.939
2023-09-23T15:00:02.336Z,71.939
2023-09-23T15:07:01.680Z,73.166
2023-09-23T15:14:02.043Z,72.442
2023-09-23T15:21:02.163Z,72.442
2023-09-23T15:28:01.733Z,72.826
2023-09-23T15:35:01.899Z,72.407
2023-09-23T15:42:02.215Z,72.585
2023-09-23T15:49:01.335Z,72.585
2023-09-23T15:56:02.098Z,73.387
2023-09-23T16:00:01.524Z,73.387
2023-09-23T16:07:01.668Z,73.385
2023-09-23T16:14:01.679Z,74.708
2023-09-23T16:21:02.278Z,76.116
2023-09-23T16:28:01.953Z,76.116
2023-09-23T16:35:02.165Z,75.945
2023-09-23T16:42:01.917Z,76.27
2023-09-23T16:49:01.791Z,76.27
2023-09-23T16:56:01.528Z,78.224
2023-09-23T17:00:02.019Z,79.737
2023-09-23T17:07:02.174Z,79.737
2023-09-23T17:14:01.617Z,80.256
2023-09-23T17:21:01.988Z,80.327
2023-09-23T17:28:01.872Z,80.851
2023-09-23T17:35:01.531Z,80.851
2023-09-23T17:42:01.476Z,81.215
2023-09-23T17:49:02.222Z,81.648
2023-09-23T17:56:02.181Z,81.648
2023-09-23T18:00:01.559Z,82.543
2023-09-23T18:07:02.107Z,82.861
2023-09-23T18:14:02.133Z,82.861
2023-09-23T18:21:02.213Z,83.43
2023-09-23T18:28:01.435Z,83.308
2023-09-23T18:35:02.024Z,83.308
2023-09-23T18:42:01.398Z,84.074
2023-09-23T18:49:01.702Z,84.668
2023-09-23T18:56:01.671Z,85.655
2023-09-23T19:00:02.022Z,85.655
2023-09-23T19:07:02.318Z,85.837
2023-09-23T19:14:01.826Z,85.837
2023-09-23T19:21:02.276Z,86.007
2023-09-23T19:28:02.112Z,86.134
2023-09-23T19:35:01.957Z,86.276
2023-09-23T19:42:02.242Z,86.276
2023-09-23T19:49:01.763Z,86.798
2023-09-23T19:56:01.740Z,87.068
2023-09-23T20:00:02.097Z,87.068
2023-09-23T20:07:02.328Z,87.647
2023-09-23T20:14:01.785Z,87.934
2023-09-23T20:21:02.169Z,87.934
2023-09-23T20:28:01.663Z,88.159
2023-09-23T20:35:01.635Z,88.977
2023-09-23T20:42:01.853Z,89.164
2023-09-23T20:49:01.323Z,89.164
2023-09-23T20:56:01.849Z,89.656
2023-09-23T21:00:02.223Z,89.656
2023-09-23T21:07:02.198Z,90.124
2023-09-23T21:14:01.614Z,90.434
2023-09-23T21:21:01.608Z,90.529
2023-09-23T21:28:01.596Z,90.529
2023-09-23T21:35:01.980Z,90.659
2023-09-23T21:42:01.677Z,91.029
2023-09-23T21:49:02.201Z,91.029
2023-09-23T21:56:02.196Z,91.102
2023-09-23T22:00:01.640Z,91.511
2023-09-23T22:07:01.326Z,91.511
2023-09-23T22:14:01.691Z,91.511
2023-09-23T22:21:01.389Z,92.153
2023-09-23T22:28:01.898Z,92.153
2023-09-23T22:35:02.060Z,92.751
2023-09-23T22:42:02.126Z,92.881
2023-09-23T22:49:01.908Z,92.881
2023-09-23T22:56:02.016Z,93.517
2023-09-23T23:00:01.347Z,93.517
2023-09-23T23:07:01.615Z,93.676
2023-09-23T23:14:02.178Z,94.042
2023-09-23T23:21:02.045Z,94.768
2023-09-23T23:28:01.916Z,94.768
2023-09-23T23:35:01.701Z,95.212
2023-09-23T23:42:02.114Z,95.212
2023-09-23T23:49:02.224Z,95.938
2023-09-23T23:56:01.683Z,96.145
